Adak, Alaska
Current Conditions -  °F | °C
As of 2:56 AM on Friday 24 Oct 2014 (Local Time) from PADK Reporting Station
Overcast Overcast  
Wind Chill: 42°   Ceiling: 1000
Heat Index: 46°   Visibility: NA
Dew Point: 39°   Wind: 8mph
Humidity: 76%   Direction: 240°WSW
Pressure: 30.06"   Gusts: NA
Location:  51.88°N, 176.66°W
Report Text: PADK 241156Z AUTO 24007KT OVC010 08/04 A3006 RMK AO1 60005 10080 20070 54000
Loading
Personal Weather Stations






























Interactive Weather Map New forecast layout! Learn more

10-Day Weather Forecast

Advertisements
Track Severe Weather on mobile